sensor_id;sensor_type;location;lat;lon;timestamp;temperature;humidity
37378;DHT22;23248;48.120;14.854;2022-10-16T00:01:17;12.70;99.90
37378;DHT22;23248;48.120;14.854;2022-10-16T00:03:43;12.60;99.90
37378;DHT22;23248;48.120;14.854;2022-10-16T00:06:09;12.50;99.90
37378;DHT22;23248;48.120;14.854;2022-10-16T00:08:35;12.50;99.90
37378;DHT22;23248;48.120;14.854;2022-10-16T00:11:05;12.50;99.90
37378;DHT22;23248;48.120;14.854;2022-10-16T00:13:32;12.50;99.90
37378;DHT22;23248;48.120;14.854;2022-10-16T00:15:59;12.50;99.90
37378;DHT22;23248;48.120;14.854;2022-10-16T00:18:25;12.50;99.90
37378;DHT22;23248;48.120;14.854;2022-10-16T00:20:50;12.60;99.90
37378;DHT22;23248;48.120;14.854;2022-10-16T00:23:16;12.50;99.90
37378;DHT22;23248;48.120;14.854;2022-10-16T00:25:42;12.50;99.90
37378;DHT22;23248;48.120;14.854;2022-10-16T00:28:07;12.40;99.90
37378;DHT22;23248;48.120;14.854;2022-10-16T00:30:33;12.40;99.90
37378;DHT22;23248;48.120;14.854;2022-10-16T00:32:58;12.30;99.90
37378;DHT22;23248;48.120;14.854;2022-10-16T00:35:24;12.30;99.90
37378;DHT22;23248;48.120;14.854;2022-10-16T00:37:50;12.30;99.90
37378;DHT22;23248;48.120;14.854;2022-10-16T00:40:16;12.30;99.90
37378;DHT22;23248;48.120;14.854;2022-10-16T00:42:41;12.20;99.90
37378;DHT22;23248;48.120;14.854;2022-10-16T00:45:08;12.20;99.90
37378;DHT22;23248;48.120;14.854;2022-10-16T00:47:35;12.30;99.90
37378;DHT22;23248;48.120;14.854;2022-10-16T00:50:04;12.30;99.90
37378;DHT22;23248;48.120;14.854;2022-10-16T00:52:31;12.30;99.90
37378;DHT22;23248;48.120;14.854;2022-10-16T00:54:57;12.20;99.90
37378;DHT22;23248;48.120;14.854;2022-10-16T00:57:23;12.30;99.90
37378;DHT22;23248;48.120;14.854;2022-10-16T00:59:49;12.30;99.90
37378;DHT22;23248;48.120;14.854;2022-10-16T01:02:15;12.20;99.90
37378;DHT22;23248;48.120;14.854;2022-10-16T01:04:42;12.20;99.90
37378;DHT22;23248;48.120;14.854;2022-10-16T01:07:12;12.20;99.90
37378;DHT22;23248;48.120;14.854;2022-10-16T01:12:14;12.20;99.90
37378;DHT22;23248;48.120;14.854;2022-10-16T01:17:28;12.30;99.90
37378;DHT22;23248;48.120;14.854;2022-10-16T01:22:23;12.20;99.90
37378;DHT22;23248;48.120;14.854;2022-10-16T01:24:51;12.30;99.90
37378;DHT22;23248;48.120;14.854;2022-10-16T01:27:25;12.20;99.90
37378;DHT22;23248;48.120;14.854;2022-10-16T01:34:51;12.20;99.90
37378;DHT22;23248;48.120;14.854;2022-10-16T01:37:20;12.30;99.90
37378;DHT22;23248;48.120;14.854;2022-10-16T01:39:47;12.30;99.90
37378;DHT22;23248;48.120;14.854;2022-10-16T01:42:20;12.30;99.90
37378;DHT22;23248;48.120;14.854;2022-10-16T01:44:48;12.20;99.90
37378;DHT22;23248;48.120;14.854;2022-10-16T01:47:15;12.30;99.90
37378;DHT22;23248;48.120;14.854;2022-10-16T01:49:41;12.30;99.90
37378;DHT22;23248;48.120;14.854;2022-10-16T01:52:12;12.30;99.90
37378;DHT22;23248;48.120;14.854;2022-10-16T01:54:40;12.30;99.90
37378;DHT22;23248;48.120;14.854;2022-10-16T01:57:07;12.30;99.90
37378;DHT22;23248;48.120;14.854;2022-10-16T01:59:34;12.30;99.90
37378;DHT22;23248;48.120;14.854;2022-10-16T02:02:03;12.30;99.90
37378;DHT22;23248;48.120;14.854;2022-10-16T02:04:34;12.30;99.90
37378;DHT22;23248;48.120;14.854;2022-10-16T02:07:01;12.30;99.90
37378;DHT22;23248;48.120;14.854;2022-10-16T02:09:27;12.30;99.90
37378;DHT22;23248;48.120;14.854;2022-10-16T02:11:53;12.30;99.90
37378;DHT22;23248;48.120;14.854;2022-10-16T02:14:20;12.40;99.90
37378;DHT22;23248;48.120;14.854;2022-10-16T02:16:47;12.40;99.90
37378;DHT22;23248;48.120;14.854;2022-10-16T02:19:13;12.40;99.90
37378;DHT22;23248;48.120;14.854;2022-10-16T02:21:44;12.30;99.90
37378;DHT22;23248;48.120;14.854;2022-10-16T02:26:37;12.40;99.90
37378;DHT22;23248;48.120;14.854;2022-10-16T02:29:06;12.30;99.90
37378;DHT22;23248;48.120;14.854;2022-10-16T02:31:35;12.30;99.90
37378;DHT22;23248;48.120;14.854;2022-10-16T02:34:01;12.30;99.90
37378;DHT22;23248;48.120;14.854;2022-10-16T02:36:30;12.30;99.90
37378;DHT22;23248;48.120;14.854;2022-10-16T02:38:57;12.20;99.90
37378;DHT22;23248;48.120;14.854;2022-10-16T02:41:23;12.30;99.90
37378;DHT22;23248;48.120;14.854;2022-10-16T02:43:49;12.20;99.90
37378;DHT22;23248;48.120;14.854;2022-10-16T02:46:15;12.20;99.90
37378;DHT22;23248;48.120;14.854;2022-10-16T02:48:40;12.20;99.90
37378;DHT22;23248;48.120;14.854;2022-10-16T02:51:06;12.10;99.90
37378;DHT22;23248;48.120;14.854;2022-10-16T02:53:31;12.10;99.90
37378;DHT22;23248;48.120;14.854;2022-10-16T02:55:57;12.10;99.90
37378;DHT22;23248;48.120;14.854;2022-10-16T02:58:23;12.20;99.90
37378;DHT22;23248;48.120;14.854;2022-10-16T03:00:48;12.20;99.90
37378;DHT22;23248;48.120;14.854;2022-10-16T03:03:14;12.20;99.90
37378;DHT22;23248;48.120;14.854;2022-10-16T03:05:39;12.10;99.90
37378;DHT22;23248;48.120;14.854;2022-10-16T03:08:05;12.10;99.90
37378;DHT22;23248;48.120;14.854;2022-10-16T03:10:31;12.10;99.90
37378;DHT22;23248;48.120;14.854;2022-10-16T03:12:56;12.20;99.90
37378;DHT22;23248;48.120;14.854;2022-10-16T03:15:22;12.20;99.90
37378;DHT22;23248;48.120;14.854;2022-10-16T03:17:47;12.20;99.90
37378;DHT22;23248;48.120;14.854;2022-10-16T03:20:13;12.10;99.90
37378;DHT22;23248;48.120;14.854;2022-10-16T03:22:39;12.20;99.90
37378;DHT22;23248;48.120;14.854;2022-10-16T03:25:04;12.10;99.90
37378;DHT22;23248;48.120;14.854;2022-10-16T03:27:30;12.10;99.90
37378;DHT22;23248;48.120;14.854;2022-10-16T03:29:56;12.20;99.90
37378;DHT22;23248;48.120;14.854;2022-10-16T03:32:21;12.20;99.90
37378;DHT22;23248;48.120;14.854;2022-10-16T03:34:47;12.10;99.90
37378;DHT22;23248;48.120;14.854;2022-10-16T03:37:13;12.10;99.90
37378;DHT22;23248;48.120;14.854;2022-10-16T03:39:38;12.10;99.90
37378;DHT22;23248;48.120;14.854;2022-10-16T03:42:04;12.10;99.90
37378;DHT22;23248;48.120;14.854;2022-10-16T03:44:29;12.00;99.90
37378;DHT22;23248;48.120;14.854;2022-10-16T03:46:55;12.00;99.90
37378;DHT22;23248;48.120;14.854;2022-10-16T03:49:20;12.10;99.90
37378;DHT22;23248;48.120;14.854;2022-10-16T03:51:46;12.10;99.90
37378;DHT22;23248;48.120;14.854;2022-10-16T03:54:12;12.00;99.90
37378;DHT22;23248;48.120;14.854;2022-10-16T03:56:37;12.00;99.90
37378;DHT22;23248;48.120;14.854;2022-10-16T03:59:03;12.00;99.90
37378;DHT22;23248;48.120;14.854;2022-10-16T04:01:29;12.00;99.90
37378;DHT22;23248;48.120;14.854;2022-10-16T04:03:54;11.90;99.90
37378;DHT22;23248;48.120;14.854;2022-10-16T04:06:20;11.90;99.90
37378;DHT22;23248;48.120;14.854;2022-10-16T04:08:45;11.90;99.90
37378;DHT22;23248;48.120;14.854;2022-10-16T04:11:11;11.90;99.90
37378;DHT22;23248;48.120;14.854;2022-10-16T04:13:37;11.90;99.90
37378;DHT22;23248;48.120;14.854;2022-10-16T04:16:02;11.90;99.90
37378;DHT22;23248;48.120;14.854;2022-10-16T04:18:28;11.90;99.90
37378;DHT22;23248;48.120;14.854;2022-10-16T04:20:54;11.90;99.90
37378;DHT22;23248;48.120;14.854;2022-10-16T04:23:20;11.90;99.90
37378;DHT22;23248;48.120;14.854;2022-10-16T04:25:45;11.90;99.90
37378;DHT22;23248;48.120;14.854;2022-10-16T04:28:11;11.90;99.90
37378;DHT22;23248;48.120;14.854;2022-10-16T04:30:39;12.00;99.90
37378;DHT22;23248;48.120;14.854;2022-10-16T04:33:05;11.90;99.90
37378;DHT22;23248;48.120;14.854;2022-10-16T04:35:30;11.90;99.90
37378;DHT22;23248;48.120;14.854;2022-10-16T04:37:59;11.90;99.90
37378;DHT22;23248;48.120;14.854;2022-10-16T04:40:25;12.00;99.90
37378;DHT22;23248;48.120;14.854;2022-10-16T04:42:50;12.00;99.90
37378;DHT22;23248;48.120;14.854;2022-10-16T04:45:16;11.90;99.90
37378;DHT22;23248;48.120;14.854;2022-10-16T04:47:42;11.80;99.90
37378;DHT22;23248;48.120;14.854;2022-10-16T04:50:07;11.90;99.90
37378;DHT22;23248;48.120;14.854;2022-10-16T04:52:33;11.90;99.90
37378;DHT22;23248;48.120;14.854;2022-10-16T04:54:59;11.90;99.90
37378;DHT22;23248;48.120;14.854;2022-10-16T04:57:27;11.90;99.90
37378;DHT22;23248;48.120;14.854;2022-10-16T04:59:53;11.90;99.90
37378;DHT22;23248;48.120;14.854;2022-10-16T05:02:18;11.90;99.90
37378;DHT22;23248;48.120;14.854;2022-10-16T05:04:44;11.90;99.90
37378;DHT22;23248;48.120;14.854;2022-10-16T05:07:10;11.90;99.90
37378;DHT22;23248;48.120;14.854;2022-10-16T05:09:35;11.90;99.90
37378;DHT22;23248;48.120;14.854;2022-10-16T05:12:01;11.90;99.90
37378;DHT22;23248;48.120;14.854;2022-10-16T05:14:29;11.90;99.90
37378;DHT22;23248;48.120;14.854;2022-10-16T05:16:54;11.80;99.90
37378;DHT22;23248;48.120;14.854;2022-10-16T05:19:20;11.70;99.90
37378;DHT22;23248;48.120;14.854;2022-10-16T05:21:45;11.70;99.90
37378;DHT22;23248;48.120;14.854;2022-10-16T05:24:11;11.80;99.90
37378;DHT22;23248;48.120;14.854;2022-10-16T05:26:37;11.80;99.90
37378;DHT22;23248;48.120;14.854;2022-10-16T05:29:02;11.80;99.90
37378;DHT22;23248;48.120;14.854;2022-10-16T05:31:28;11.70;99.90
37378;DHT22;23248;48.120;14.854;2022-10-16T05:33:57;11.70;99.90
37378;DHT22;23248;48.120;14.854;2022-10-16T05:36:23;11.80;99.90
37378;DHT22;23248;48.120;14.854;2022-10-16T05:38:50;11.80;99.90
37378;DHT22;23248;48.120;14.854;2022-10-16T05:41:15;11.80;99.90
37378;DHT22;23248;48.120;14.854;2022-10-16T05:43:46;11.80;99.90
37378;DHT22;23248;48.120;14.854;2022-10-16T05:46:12;11.90;99.90
37378;DHT22;23248;48.120;14.854;2022-10-16T05:48:38;11.90;99.90
37378;DHT22;23248;48.120;14.854;2022-10-16T05:51:04;11.80;99.90
37378;DHT22;23248;48.120;14.854;2022-10-16T05:53:31;11.80;99.90
37378;DHT22;23248;48.120;14.854;2022-10-16T05:55:57;11.60;99.90
37378;DHT22;23248;48.120;14.854;2022-10-16T05:58:23;11.60;99.90
37378;DHT22;23248;48.120;14.854;2022-10-16T06:00:53;11.60;99.90
37378;DHT22;23248;48.120;14.854;2022-10-16T06:03:18;11.50;99.90
37378;DHT22;23248;48.120;14.854;2022-10-16T06:05:44;11.50;99.90
37378;DHT22;23248;48.120;14.854;2022-10-16T06:08:09;11.50;99.90
37378;DHT22;23248;48.120;14.854;2022-10-16T06:10:35;11.50;99.90
37378;DHT22;23248;48.120;14.854;2022-10-16T06:13:00;11.50;99.90
37378;DHT22;23248;48.120;14.854;2022-10-16T06:15:26;11.50;99.90
37378;DHT22;23248;48.120;14.854;2022-10-16T06:17:52;11.60;99.90
37378;DHT22;23248;48.120;14.854;2022-10-16T06:20:17;11.70;99.90
37378;DHT22;23248;48.120;14.854;2022-10-16T06:22:43;11.80;99.90
37378;DHT22;23248;48.120;14.854;2022-10-16T06:25:08;11.80;99.90
37378;DHT22;23248;48.120;14.854;2022-10-16T06:27:34;11.80;99.90
37378;DHT22;23248;48.120;14.854;2022-10-16T06:30:00;11.70;99.90
37378;DHT22;23248;48.120;14.854;2022-10-16T06:32:26;11.70;99.90
37378;DHT22;23248;48.120;14.854;2022-10-16T06:34:52;11.80;99.90
37378;DHT22;23248;48.120;14.854;2022-10-16T06:37:18;11.80;99.90
37378;DHT22;23248;48.120;14.854;2022-10-16T06:39:43;11.90;99.90
37378;DHT22;23248;48.120;14.854;2022-10-16T06:42:09;11.90;99.90
37378;DHT22;23248;48.120;14.854;2022-10-16T06:44:34;12.00;99.90
37378;DHT22;23248;48.120;14.854;2022-10-16T06:47:00;12.00;99.90
37378;DHT22;23248;48.120;14.854;2022-10-16T06:49:26;12.00;99.90
37378;DHT22;23248;48.120;14.854;2022-10-16T06:51:53;12.00;99.90
37378;DHT22;23248;48.120;14.854;2022-10-16T06:54:19;12.00;99.90
37378;DHT22;23248;48.120;14.854;2022-10-16T06:56:45;12.00;99.90
37378;DHT22;23248;48.120;14.854;2022-10-16T06:59:10;12.10;99.90
37378;DHT22;23248;48.120;14.854;2022-10-16T07:01:36;12.10;99.90
37378;DHT22;23248;48.120;14.854;2022-10-16T07:04:02;12.10;99.90
37378;DHT22;23248;48.120;14.854;2022-10-16T07:06:30;12.20;99.90
37378;DHT22;23248;48.120;14.854;2022-10-16T07:08:55;12.10;99.90
37378;DHT22;23248;48.120;14.854;2022-10-16T07:11:22;12.10;99.90
37378;DHT22;23248;48.120;14.854;2022-10-16T07:13:48;12.20;99.90
37378;DHT22;23248;48.120;14.854;2022-10-16T07:16:15;12.20;99.90
37378;DHT22;23248;48.120;14.854;2022-10-16T07:18:41;12.20;99.90
37378;DHT22;23248;48.120;14.854;2022-10-16T07:21:11;12.30;99.90
37378;DHT22;23248;48.120;14.854;2022-10-16T07:23:37;12.30;99.90
37378;DHT22;23248;48.120;14.854;2022-10-16T07:26:04;12.30;99.90
37378;DHT22;23248;48.120;14.854;2022-10-16T07:28:30;12.30;99.90
37378;DHT22;23248;48.120;14.854;2022-10-16T07:30:59;12.40;99.90
37378;DHT22;23248;48.120;14.854;2022-10-16T07:33:25;12.40;99.90
37378;DHT22;23248;48.120;14.854;2022-10-16T07:35:51;12.30;99.90
37378;DHT22;23248;48.120;14.854;2022-10-16T07:38:17;12.30;99.90
37378;DHT22;23248;48.120;14.854;2022-10-16T07:40:43;12.40;99.90
37378;DHT22;23248;48.120;14.854;2022-10-16T07:43:09;12.40;99.90
37378;DHT22;23248;48.120;14.854;2022-10-16T07:45:34;12.50;99.90
37378;DHT22;23248;48.120;14.854;2022-10-16T07:48:00;12.50;99.90
37378;DHT22;23248;48.120;14.854;2022-10-16T07:50:26;12.50;99.90
37378;DHT22;23248;48.120;14.854;2022-10-16T07:52:51;12.50;99.90
37378;DHT22;23248;48.120;14.854;2022-10-16T07:55:17;12.50;99.90
37378;DHT22;23248;48.120;14.854;2022-10-16T07:57:42;12.60;99.90
37378;DHT22;23248;48.120;14.854;2022-10-16T08:00:08;12.70;99.90
37378;DHT22;23248;48.120;14.854;2022-10-16T08:02:41;12.80;99.90
37378;DHT22;23248;48.120;14.854;2022-10-16T08:05:07;12.90;99.90
37378;DHT22;23248;48.120;14.854;2022-10-16T08:07:33;13.00;99.90
37378;DHT22;23248;48.120;14.854;2022-10-16T08:09:58;13.00;99.90
37378;DHT22;23248;48.120;14.854;2022-10-16T08:12:25;13.10;99.90
37378;DHT22;23248;48.120;14.854;2022-10-16T08:14:50;13.20;99.90
37378;DHT22;23248;48.120;14.854;2022-10-16T08:17:16;13.30;99.90
37378;DHT22;23248;48.120;14.854;2022-10-16T08:19:46;13.40;99.90
37378;DHT22;23248;48.120;14.854;2022-10-16T08:22:13;13.50;99.90
37378;DHT22;23248;48.120;14.854;2022-10-16T08:24:39;13.60;99.90
37378;DHT22;23248;48.120;14.854;2022-10-16T08:27:05;13.70;99.90
37378;DHT22;23248;48.120;14.854;2022-10-16T08:29:30;13.90;99.90
37378;DHT22;23248;48.120;14.854;2022-10-16T08:31:56;14.00;99.90
37378;DHT22;23248;48.120;14.854;2022-10-16T08:34:22;14.10;99.90
37378;DHT22;23248;48.120;14.854;2022-10-16T08:36:47;14.20;99.90
37378;DHT22;23248;48.120;14.854;2022-10-16T08:39:13;14.40;99.90
37378;DHT22;23248;48.120;14.854;2022-10-16T08:49:36;14.80;99.90
37378;DHT22;23248;48.120;14.854;2022-10-16T08:52:02;14.90;99.90
37378;DHT22;23248;48.120;14.854;2022-10-16T08:54:29;15.10;99.90
37378;DHT22;23248;48.120;14.854;2022-10-16T08:57:00;15.20;99.90
37378;DHT22;23248;48.120;14.854;2022-10-16T08:59:29;15.30;99.90
37378;DHT22;23248;48.120;14.854;2022-10-16T09:01:55;15.40;99.90
37378;DHT22;23248;48.120;14.854;2022-10-16T09:06:54;15.40;99.90
37378;DHT22;23248;48.120;14.854;2022-10-16T09:11:57;15.60;99.90
37378;DHT22;23248;48.120;14.854;2022-10-16T09:16:56;16.00;99.90
37378;DHT22;23248;48.120;14.854;2022-10-16T09:19:31;16.10;99.90
37378;DHT22;23248;48.120;14.854;2022-10-16T09:21:59;16.20;99.90
37378;DHT22;23248;48.120;14.854;2022-10-16T09:24:27;16.20;99.90
37378;DHT22;23248;48.120;14.854;2022-10-16T09:26:52;16.30;99.90
37378;DHT22;23248;48.120;14.854;2022-10-16T09:29:20;16.40;99.90
37378;DHT22;23248;48.120;14.854;2022-10-16T09:31:47;16.60;99.90
37378;DHT22;23248;48.120;14.854;2022-10-16T09:34:27;16.70;99.90
37378;DHT22;23248;48.120;14.854;2022-10-16T09:36:55;16.80;99.90
37378;DHT22;23248;48.120;14.854;2022-10-16T09:39:21;17.10;99.90
37378;DHT22;23248;48.120;14.854;2022-10-16T09:41:47;17.30;99.90
37378;DHT22;23248;48.120;14.854;2022-10-16T09:46:41;17.70;99.90
37378;DHT22;23248;48.120;14.854;2022-10-16T09:49:24;17.80;99.90
37378;DHT22;23248;48.120;14.854;2022-10-16T09:51:50;17.80;99.90
37378;DHT22;23248;48.120;14.854;2022-10-16T09:54:17;17.80;99.90
37378;DHT22;23248;48.120;14.854;2022-10-16T09:56:42;18.00;99.90
37378;DHT22;23248;48.120;14.854;2022-10-16T09:59:15;18.10;99.90
37378;DHT22;23248;48.120;14.854;2022-10-16T10:01:41;18.30;99.90
37378;DHT22;23248;48.120;14.854;2022-10-16T10:04:08;18.40;99.90
37378;DHT22;23248;48.120;14.854;2022-10-16T10:06:34;18.50;99.90
37378;DHT22;23248;48.120;14.854;2022-10-16T10:09:14;18.60;99.90
37378;DHT22;23248;48.120;14.854;2022-10-16T10:11:42;18.70;99.90
37378;DHT22;23248;48.120;14.854;2022-10-16T10:14:18;18.60;99.90
37378;DHT22;23248;48.120;14.854;2022-10-16T10:16:45;18.70;99.90
37378;DHT22;23248;48.120;14.854;2022-10-16T10:19:18;18.80;99.90
37378;DHT22;23248;48.120;14.854;2022-10-16T10:21:44;19.00;99.90
37378;DHT22;23248;48.120;14.854;2022-10-16T10:24:10;19.10;99.90
37378;DHT22;23248;48.120;14.854;2022-10-16T10:26:36;19.20;99.90
37378;DHT22;23248;48.120;14.854;2022-10-16T10:31:31;19.40;99.90
37378;DHT22;23248;48.120;14.854;2022-10-16T10:34:02;19.50;99.90
37378;DHT22;23248;48.120;14.854;2022-10-16T10:39:04;19.60;99.90
37378;DHT22;23248;48.120;14.854;2022-10-16T10:41:39;19.70;99.90
37378;DHT22;23248;48.120;14.854;2022-10-16T10:46:45;19.70;99.90
37378;DHT22;23248;48.120;14.854;2022-10-16T10:49:36;19.50;99.90
37378;DHT22;23248;48.120;14.854;2022-10-16T10:54:40;19.50;99.90
37378;DHT22;23248;48.120;14.854;2022-10-16T10:57:16;19.60;99.90
37378;DHT22;23248;48.120;14.854;2022-10-16T11:10:40;20.20;99.90
37378;DHT22;23248;48.120;14.854;2022-10-16T11:13:15;20.30;99.90
37378;DHT22;23248;48.120;14.854;2022-10-16T11:15:42;20.60;99.90
37378;DHT22;23248;48.120;14.854;2022-10-16T11:18:15;20.50;99.90
37378;DHT22;23248;48.120;14.854;2022-10-16T11:20:44;20.60;99.90
37378;DHT22;23248;48.120;14.854;2022-10-16T11:25:48;20.60;99.90
37378;DHT22;23248;48.120;14.854;2022-10-16T11:28:16;20.70;99.90
37378;DHT22;23248;48.120;14.854;2022-10-16T11:30:46;20.70;99.90
37378;DHT22;23248;48.120;14.854;2022-10-16T11:33:22;20.80;99.90
37378;DHT22;23248;48.120;14.854;2022-10-16T11:38:41;21.00;99.90
37378;DHT22;23248;48.120;14.854;2022-10-16T11:43:45;21.30;99.90
37378;DHT22;23248;48.120;14.854;2022-10-16T11:46:20;21.30;99.90
37378;DHT22;23248;48.120;14.854;2022-10-16T11:51:45;21.40;99.90
37378;DHT22;23248;48.120;14.854;2022-10-16T11:56:46;21.30;99.90
37378;DHT22;23248;48.120;14.854;2022-10-16T11:59:17;21.10;99.90
37378;DHT22;23248;48.120;14.854;2022-10-16T12:01:46;20.80;99.90
37378;DHT22;23248;48.120;14.854;2022-10-16T12:04:25;20.70;99.90
37378;DHT22;23248;48.120;14.854;2022-10-16T12:07:02;20.70;99.90
37378;DHT22;23248;48.120;14.854;2022-10-16T12:09:29;20.80;99.90
37378;DHT22;23248;48.120;14.854;2022-10-16T12:11:55;21.10;99.90
37378;DHT22;23248;48.120;14.854;2022-10-16T12:16:50;21.70;99.90
37378;DHT22;23248;48.120;14.854;2022-10-16T12:19:17;21.70;99.90
37378;DHT22;23248;48.120;14.854;2022-10-16T12:21:43;21.70;99.90
37378;DHT22;23248;48.120;14.854;2022-10-16T12:26:51;22.00;99.90
37378;DHT22;23248;48.120;14.854;2022-10-16T12:29:36;22.30;99.90
37378;DHT22;23248;48.120;14.854;2022-10-16T12:32:05;22.40;99.90
37378;DHT22;23248;48.120;14.854;2022-10-16T12:34:44;22.40;99.90
37378;DHT22;23248;48.120;14.854;2022-10-16T12:39:39;22.00;99.90
37378;DHT22;23248;48.120;14.854;2022-10-16T12:42:19;22.00;99.90
37378;DHT22;23248;48.120;14.854;2022-10-16T12:44:46;22.30;99.90
37378;DHT22;23248;48.120;14.854;2022-10-16T12:47:47;22.70;99.90
37378;DHT22;23248;48.120;14.854;2022-10-16T12:50:21;22.80;99.90
37378;DHT22;23248;48.120;14.854;2022-10-16T12:52:48;22.80;99.90
37378;DHT22;23248;48.120;14.854;2022-10-16T12:55:17;22.90;99.90
37378;DHT22;23248;48.120;14.854;2022-10-16T13:13:31;23.30;99.90
37378;DHT22;23248;48.120;14.854;2022-10-16T13:26:35;23.80;99.90
37378;DHT22;23248;48.120;14.854;2022-10-16T13:29:03;24.00;99.90
37378;DHT22;23248;48.120;14.854;2022-10-16T13:31:29;24.10;99.90
37378;DHT22;23248;48.120;14.854;2022-10-16T13:33:56;24.10;99.90
37378;DHT22;23248;48.120;14.854;2022-10-16T13:39:00;24.00;99.90
37378;DHT22;23248;48.120;14.854;2022-10-16T13:41:25;24.00;99.90
37378;DHT22;23248;48.120;14.854;2022-10-16T13:43:52;24.10;99.90
37378;DHT22;23248;48.120;14.854;2022-10-16T13:46:19;24.10;99.90
37378;DHT22;23248;48.120;14.854;2022-10-16T13:49:11;24.00;99.90
37378;DHT22;23248;48.120;14.854;2022-10-16T13:51:32;24.00;99.90
37378;DHT22;23248;48.120;14.854;2022-10-16T13:53:58;24.00;99.90
37378;DHT22;23248;48.120;14.854;2022-10-16T13:56:30;23.90;99.90
37378;DHT22;23248;48.120;14.854;2022-10-16T13:59:03;24.10;99.90
37378;DHT22;23248;48.120;14.854;2022-10-16T14:01:33;24.10;99.90
37378;DHT22;23248;48.120;14.854;2022-10-16T14:04:03;24.10;99.90
37378;DHT22;23248;48.120;14.854;2022-10-16T14:06:29;24.10;99.90
37378;DHT22;23248;48.120;14.854;2022-10-16T14:09:08;24.30;99.90
37378;DHT22;23248;48.120;14.854;2022-10-16T14:11:36;24.20;99.90
37378;DHT22;23248;48.120;14.854;2022-10-16T14:14:04;24.20;99.90
37378;DHT22;23248;48.120;14.854;2022-10-16T14:16:30;24.10;99.90
37378;DHT22;23248;48.120;14.854;2022-10-16T14:19:01;24.20;99.90
37378;DHT22;23248;48.120;14.854;2022-10-16T14:21:27;24.30;99.90
37378;DHT22;23248;48.120;14.854;2022-10-16T14:23:53;24.10;99.90
37378;DHT22;23248;48.120;14.854;2022-10-16T14:26:20;24.10;99.90
37378;DHT22;23248;48.120;14.854;2022-10-16T14:28:47;24.30;99.90
37378;DHT22;23248;48.120;14.854;2022-10-16T14:33:44;24.20;99.90
37378;DHT22;23248;48.120;14.854;2022-10-16T14:38:36;24.50;99.90
37378;DHT22;23248;48.120;14.854;2022-10-16T14:41:03;24.40;99.90
37378;DHT22;23248;48.120;14.854;2022-10-16T14:46:01;23.70;99.90
37378;DHT22;23248;48.120;14.854;2022-10-16T14:48:27;23.10;99.90
37378;DHT22;23248;48.120;14.854;2022-10-16T14:50:53;22.50;99.90
37378;DHT22;23248;48.120;14.854;2022-10-16T14:53:19;22.10;99.90
37378;DHT22;23248;48.120;14.854;2022-10-16T14:55:44;21.80;99.90
37378;DHT22;23248;48.120;14.854;2022-10-16T14:58:15;21.60;99.90
37378;DHT22;23248;48.120;14.854;2022-10-16T15:00:41;21.40;99.90
37378;DHT22;23248;48.120;14.854;2022-10-16T15:03:07;21.20;99.90
37378;DHT22;23248;48.120;14.854;2022-10-16T15:05:33;21.00;99.90
37378;DHT22;23248;48.120;14.854;2022-10-16T15:07:58;20.90;99.90
37378;DHT22;23248;48.120;14.854;2022-10-16T15:10:25;20.70;99.90
37378;DHT22;23248;48.120;14.854;2022-10-16T15:12:51;20.60;99.90
37378;DHT22;23248;48.120;14.854;2022-10-16T15:17:57;20.30;99.90
37378;DHT22;23248;48.120;14.854;2022-10-16T15:20:32;20.20;99.90
37378;DHT22;23248;48.120;14.854;2022-10-16T15:23:06;20.00;99.90
37378;DHT22;23248;48.120;14.854;2022-10-16T15:25:36;19.80;99.90
37378;DHT22;23248;48.120;14.854;2022-10-16T15:28:03;19.70;99.90
37378;DHT22;23248;48.120;14.854;2022-10-16T15:30:29;19.60;99.90
37378;DHT22;23248;48.120;14.854;2022-10-16T15:32:55;19.50;99.90
37378;DHT22;23248;48.120;14.854;2022-10-16T15:35:21;19.40;99.90
37378;DHT22;23248;48.120;14.854;2022-10-16T15:37:47;19.30;99.90
37378;DHT22;23248;48.120;14.854;2022-10-16T15:40:13;19.20;99.90
37378;DHT22;23248;48.120;14.854;2022-10-16T15:42:39;19.00;99.90
37378;DHT22;23248;48.120;14.854;2022-10-16T15:45:05;18.90;99.90
37378;DHT22;23248;48.120;14.854;2022-10-16T15:47:31;18.80;99.90
37378;DHT22;23248;48.120;14.854;2022-10-16T15:49:57;18.70;99.90
37378;DHT22;23248;48.120;14.854;2022-10-16T15:52:23;18.70;99.90
37378;DHT22;23248;48.120;14.854;2022-10-16T15:54:48;18.60;99.90
37378;DHT22;23248;48.120;14.854;2022-10-16T15:57:14;18.50;99.90
37378;DHT22;23248;48.120;14.854;2022-10-16T15:59:40;18.40;99.90
37378;DHT22;23248;48.120;14.854;2022-10-16T16:02:05;18.30;99.90
37378;DHT22;23248;48.120;14.854;2022-10-16T16:04:31;18.20;99.90
37378;DHT22;23248;48.120;14.854;2022-10-16T16:06:57;18.00;99.90
37378;DHT22;23248;48.120;14.854;2022-10-16T16:09:22;17.90;99.90
37378;DHT22;23248;48.120;14.854;2022-10-16T16:11:48;17.80;99.90
37378;DHT22;23248;48.120;14.854;2022-10-16T16:14:14;17.70;99.90
37378;DHT22;23248;48.120;14.854;2022-10-16T16:16:40;17.60;99.90
37378;DHT22;23248;48.120;14.854;2022-10-16T16:19:06;17.50;99.90
37378;DHT22;23248;48.120;14.854;2022-10-16T16:21:33;17.50;99.90
37378;DHT22;23248;48.120;14.854;2022-10-16T16:23:59;17.40;99.90
37378;DHT22;23248;48.120;14.854;2022-10-16T16:26:25;17.40;99.90
37378;DHT22;23248;48.120;14.854;2022-10-16T16:28:52;17.40;99.90
37378;DHT22;23248;48.120;14.854;2022-10-16T16:31:18;17.20;99.90
37378;DHT22;23248;48.120;14.854;2022-10-16T16:33:44;17.20;99.90
37378;DHT22;23248;48.120;14.854;2022-10-16T16:36:10;17.10;99.90
37378;DHT22;23248;48.120;14.854;2022-10-16T16:38:36;17.00;99.90
37378;DHT22;23248;48.120;14.854;2022-10-16T16:41:14;16.90;99.90
37378;DHT22;23248;48.120;14.854;2022-10-16T16:43:40;16.80;99.90
37378;DHT22;23248;48.120;14.854;2022-10-16T16:46:06;16.70;99.90
37378;DHT22;23248;48.120;14.854;2022-10-16T16:48:32;16.70;99.90
37378;DHT22;23248;48.120;14.854;2022-10-16T16:51:07;16.60;99.90
37378;DHT22;23248;48.120;14.854;2022-10-16T16:53:33;16.70;99.90
37378;DHT22;23248;48.120;14.854;2022-10-16T16:56:03;16.60;99.90
37378;DHT22;23248;48.120;14.854;2022-10-16T16:58:29;16.40;99.90
37378;DHT22;23248;48.120;14.854;2022-10-16T17:00:55;16.30;99.90
37378;DHT22;23248;48.120;14.854;2022-10-16T17:03:22;16.20;99.90
37378;DHT22;23248;48.120;14.854;2022-10-16T17:05:55;16.20;99.90
37378;DHT22;23248;48.120;14.854;2022-10-16T17:08:21;16.10;99.90
37378;DHT22;23248;48.120;14.854;2022-10-16T17:10:47;16.10;99.90